Lavalle, Argentina
Current Conditions -  °F | °C
As of 9:00 AM on Wednesday 22 Oct 2014 (Local Time) from SARE Reporting Station
Clear Clear  
Wind Chill: 77°   Ceiling: Unl
Heat Index: 79°   Visibility: 6mi
Dew Point: 57°   Wind: 8mph
Humidity: 50%   Direction: 90°E
Pressure: 30"   Gusts: NA
Location:  29.02°S, 59.18°W
Report Text: SARE 221200Z 09007KT CAVOK 25/14 Q1016
Loading
Personal Weather Stations






























Interactive Weather Map
Tropical Storm Tracking
New forecast layout! Learn more

10-Day Weather Forecast

Advertisements
Track Severe Weather on mobile